Time;durP1;ratioP1;P1;durP2;ratioP2;P2;SDS_P1;SDS_P2;PMS_P1;PMS_P2;Temp;Humidity;BMP_temperature;BMP_pressure;BME280_temperature;BME280_humidity;BME280_pressure;Samples;Min_cycle;Max_cycle;Signal;HPM_P1;HPM_P2
2022/02/05 00:01:33;;;;;;;36.20;23.40;;;5.60;99.90;;;;;;5064349;28;20437;-72
2022/02/05 00:03:59;;;;;;;35.30;23.20;;;5.60;99.90;;;;;;5066668;28;20037;-72
2022/02/05 00:06:30;;;;;;;38.40;24.30;;;5.60;99.90;;;;;;5068082;28;20127;-72
2022/02/05 00:39:26;;;;;;;35.45;21.23;;;5.10;99.90;;;;;;5064484;28;20075;-72
2022/02/05 00:41:16;;;;;;;35.80;23.15;;;5.10;99.90;;;;;;5055849;28;20494;-73
2022/02/05 00:43:51;;;;;;;36.33;23.10;;;5.10;99.90;;;;;;5063804;28;20040;-72
2022/02/05 00:46:17;;;;;;;36.30;21.23;;;5.10;99.90;;;;;;5064888;28;20055;-72
2022/02/05 00:48:43;;;;;;;37.88;22.08;;;5.10;99.90;;;;;;5048239;28;20475;-72
2022/02/05 00:51:14;;;;;;;40.08;24.00;;;4.90;99.90;;;;;;5071338;28;20029;-72
2022/02/05 00:53:42;;;;;;;48.22;25.05;;;4.90;99.90;;;;;;5071619;28;20036;-72
2022/02/05 00:58:38;;;;;;;35.35;23.27;;;4.80;99.90;;;;;;5061781;28;20035;-72
2022/02/05 01:01:04;;;;;;;37.90;24.23;;;4.70;99.90;;;;;;5049609;28;20411;-72
2022/02/05 01:03:30;;;;;;;38.20;23.10;;;4.70;99.90;;;;;;5069943;28;20442;-72
2022/02/05 01:05:55;;;;;;;40.50;23.48;;;4.70;99.90;;;;;;5068497;28;20111;-72
2022/02/05 01:08:23;;;;;;;36.83;23.40;;;4.80;99.90;;;;;;5065115;28;20074;-72
2022/02/05 01:10:49;;;;;;;40.55;24.17;;;4.80;99.90;;;;;;5068112;28;20044;-72
2022/02/05 01:13:15;;;;;;;35.65;21.60;;;4.70;99.90;;;;;;5069177;28;20021;-72
2022/02/05 01:15:52;;;;;;;37.40;25.13;;;4.70;99.90;;;;;;5068664;28;20116;-72
2022/02/05 01:18:20;;;;;;;39.35;24.58;;;4.80;99.90;;;;;;5069106;28;20044;-72
2022/02/05 01:23:19;;;;;;;43.65;25.95;;;4.80;99.90;;;;;;5075333;28;20496;-72
2022/02/05 01:25:53;;;;;;;45.10;25.65;;;4.80;99.90;;;;;;5054936;28;20032;-72
2022/02/05 01:28:25;;;;;;;39.38;22.73;;;4.90;99.90;;;;;;5070359;28;20078;-72
2022/02/05 01:30:54;;;;;;;37.72;23.02;;;4.90;99.90;;;;;;5073825;28;20025;-72
2022/02/05 01:33:38;;;;;;;32.58;20.58;;;4.90;99.90;;;;;;5075155;28;20036;-72
2022/02/05 01:39:17;;;;;;;34.35;20.80;;;4.90;99.90;;;;;;5072143;28;20024;-72
2022/02/05 01:55:53;;;;;;;34.35;20.88;;;4.60;99.90;;;;;;5071388;28;20040;-73
2022/02/05 02:07:03;;;;;;;39.58;23.83;;;4.80;99.90;;;;;;5033464;28;20071;-73
2022/02/05 02:12:07;;;;;;;35.77;22.87;;;4.80;99.90;;;;;;5029194;28;20049;-73
2022/02/05 02:23:45;;;;;;;41.28;24.17;;;4.90;99.90;;;;;;5030370;28;20037;-73
2022/02/05 02:28:11;;;;;;;33.72;20.63;;;4.70;99.90;;;;;;5031465;28;20068;-74
2022/02/05 02:30:42;;;;;;;40.55;22.90;;;4.80;99.90;;;;;;5023853;28;20943;-73
2022/02/05 02:33:20;;;;;;;38.72;22.80;;;4.80;99.90;;;;;;5028644;28;20076;-73
2022/02/05 02:35:48;;;;;;;30.73;20.73;;;4.70;99.90;;;;;;5021844;28;20395;-73
2022/02/05 02:38:18;;;;;;;34.90;23.33;;;4.50;99.90;;;;;;5027717;28;20033;-73
2022/02/05 02:40:58;;;;;;;36.22;20.80;;;4.50;99.90;;;;;;5034213;28;20434;-73
2022/02/05 02:43:28;;;;;;;29.27;17.38;;;4.50;99.90;;;;;;5029371;28;20463;-72
2022/02/05 02:45:53;;;;;;;27.77;17.90;;;4.50;99.90;;;;;;5023928;28;20034;-73
2022/02/05 02:48:19;;;;;;;33.85;20.52;;;4.50;99.90;;;;;;5029743;28;20041;-73
2022/02/05 02:58:59;;;;;;;36.60;22.38;;;4.40;99.90;;;;;;5065452;28;20190;-72
2022/02/05 03:01:25;;;;;;;36.55;21.73;;;4.40;99.90;;;;;;5068574;28;20025;-73
2022/02/05 03:03:51;;;;;;;30.92;19.17;;;4.50;99.90;;;;;;5072429;28;20966;-73
2022/02/05 03:06:17;;;;;;;29.70;19.02;;;4.50;99.90;;;;;;5066746;28;20025;-73
2022/02/05 03:08:44;;;;;;;34.50;20.85;;;4.40;99.90;;;;;;5065204;28;20090;-73
2022/02/05 03:11:10;;;;;;;37.08;21.63;;;4.40;99.90;;;;;;5071842;28;20063;-73
2022/02/05 03:13:36;;;;;;;37.63;21.98;;;4.40;99.90;;;;;;5064438;28;20025;-73
2022/02/05 03:16:02;;;;;;;36.50;20.73;;;4.40;99.90;;;;;;5073692;28;20081;-73
2022/02/05 03:19:15;;;;;;;50.88;23.35;;;4.40;99.90;;;;;;5063298;28;20086;-72
2022/02/05 03:21:13;;;;;;;35.65;20.77;;;4.40;99.90;;;;;;5052288;28;20155;-73
2022/02/05 03:23:39;;;;;;;34.28;20.15;;;4.30;99.90;;;;;;5071551;28;20108;-73
2022/02/05 03:26:05;;;;;;;37.15;21.50;;;4.20;99.90;;;;;;5073001;28;20502;-72
2022/02/05 03:28:33;;;;;;;36.00;21.88;;;4.20;99.90;;;;;;5066188;28;20032;-72
2022/02/05 03:30:59;;;;;;;45.40;22.17;;;4.00;99.90;;;;;;5070678;28;20071;-73
2022/02/05 03:33:24;;;;;;;34.70;21.88;;;4.10;99.90;;;;;;5072627;28;20095;-73
2022/02/05 03:35:50;;;;;;;38.35;22.90;;;4.10;99.90;;;;;;5063769;28;20043;-73
2022/02/05 03:38:16;;;;;;;38.58;23.35;;;4.10;99.90;;;;;;5069181;28;20086;-73
2022/02/05 03:40:41;;;;;;;35.63;21.42;;;4.20;99.90;;;;;;5069384;28;20032;-73
2022/02/05 03:43:07;;;;;;;38.28;23.38;;;4.20;99.90;;;;;;5070050;28;20470;-73
2022/02/05 03:45:33;;;;;;;35.97;19.80;;;4.20;99.90;;;;;;5064015;28;20121;-73
2022/02/05 03:48:00;;;;;;;36.75;21.50;;;4.10;99.90;;;;;;5072519;28;20094;-74
2022/02/05 03:50:25;;;;;;;40.10;22.13;;;4.10;99.90;;;;;;5069814;28;20482;-73
2022/02/05 03:52:51;;;;;;;35.38;22.60;;;4.00;99.90;;;;;;5064241;28;20070;-73
2022/02/05 03:55:17;;;;;;;39.30;21.65;;;3.80;99.90;;;;;;5066934;28;20480;-73
2022/02/05 03:57:43;;;;;;;35.33;20.85;;;3.80;99.90;;;;;;5070186;28;20570;-73
2022/02/05 04:00:09;;;;;;;36.22;22.45;;;3.60;99.90;;;;;;5065165;28;20036;-71
2022/02/05 04:02:36;;;;;;;34.35;20.77;;;3.70;99.90;;;;;;5068516;28;20029;-73
2022/02/05 04:05:02;;;;;;;36.15;21.05;;;3.60;99.90;;;;;;5062134;28;20032;-72
2022/02/05 04:07:30;;;;;;;34.58;21.67;;;3.60;99.90;;;;;;5064929;28;20106;-72
2022/02/05 04:10:00;;;;;;;38.03;21.05;;;3.50;99.90;;;;;;5055112;28;20462;-73
2022/02/05 04:17:54;;;;;;;41.72;23.33;;;3.30;99.90;;;;;;5058208;28;20465;-72
2022/02/05 04:20:20;;;;;;;37.60;22.52;;;3.30;99.90;;;;;;5059161;28;20033;-73
2022/02/05 04:22:46;;;;;;;37.45;22.17;;;3.40;99.90;;;;;;5063737;28;20028;-72
2022/02/05 04:25:12;;;;;;;37.20;23.95;;;3.40;99.90;;;;;;5061178;28;20024;-71
2022/02/05 04:27:38;;;;;;;35.50;22.75;;;3.40;99.90;;;;;;5067540;28;20043;-71
2022/02/05 04:30:05;;;;;;;39.30;21.88;;;3.30;99.90;;;;;;5058315;28;20032;-72
2022/02/05 04:32:31;;;;;;;35.15;21.45;;;3.40;99.90;;;;;;5067459;28;20032;-72
2022/02/05 04:34:56;;;;;;;41.70;23.73;;;3.30;99.90;;;;;;5060425;28;20485;-72
2022/02/05 04:37:23;;;;;;;38.70;22.33;;;3.30;99.90;;;;;;5065829;28;20048;-72
2022/02/05 04:39:59;;;;;;;40.08;22.45;;;3.20;99.90;;;;;;5062647;28;20032;-72
2022/02/05 04:42:36;;;;;;;39.72;21.70;;;3.10;99.90;;;;;;5059987;28;20040;-72
2022/02/05 04:45:34;;;;;;;42.85;22.52;;;3.50;99.90;;;;;;5062986;28;20031;-72
2022/02/05 05:01:45;;;;;;;37.50;21.52;;;3.10;99.90;;;;;;5062867;28;20043;-72
2022/02/05 05:10:02;;;;;;;37.03;20.77;;;2.70;99.90;;;;;;5053634;28;20033;-71
2022/02/05 05:19:58;;;;;;;33.67;20.70;;;2.60;99.90;;;;;;5052965;28;20078;-71
2022/02/05 05:22:23;;;;;;;35.85;22.45;;;2.70;99.90;;;;;;5057384;28;20447;-73
2022/02/05 05:24:49;;;;;;;36.53;21.55;;;2.60;99.90;;;;;;5056795;28;20844;-72
2022/02/05 05:27:15;;;;;;;41.22;23.13;;;2.50;99.90;;;;;;5056454;28;20111;-72
2022/02/05 05:29:40;;;;;;;35.30;21.88;;;2.50;99.90;;;;;;5061302;28;20033;-71
2022/02/05 05:32:06;;;;;;;33.75;21.08;;;2.50;99.90;;;;;;5057961;28;20529;-72
2022/02/05 05:34:32;;;;;;;42.15;23.50;;;2.50;99.90;;;;;;5055213;28;20030;-72
2022/02/05 05:37:00;;;;;;;34.88;21.00;;;2.40;99.90;;;;;;5052442;28;20041;-71
2022/02/05 05:39:26;;;;;;;34.90;20.70;;;2.50;99.90;;;;;;5063835;28;20028;-71
2022/02/05 05:41:52;;;;;;;34.60;21.35;;;2.60;99.90;;;;;;5062889;28;20036;-72
2022/02/05 05:44:56;;;;;;;33.58;19.52;;;2.50;99.90;;;;;;5050329;28;20028;-71
2022/02/05 05:48:10;;;;;;;35.53;19.92;;;2.40;99.90;;;;;;5058454;28;20051;-72
2022/02/05 05:50:34;;;;;;;34.78;21.15;;;2.80;99.90;;;;;;5040881;28;20032;-72
2022/02/05 05:52:56;;;;;;;39.38;21.20;;;2.70;99.90;;;;;;5056030;28;20135;-72
2022/02/05 05:55:21;;;;;;;33.38;20.13;;;2.60;99.90;;;;;;5044467;28;20516;-71
2022/02/05 05:57:47;;;;;;;33.63;19.77;;;2.70;99.90;;;;;;5060708;28;20542;-72
2022/02/05 06:00:14;;;;;;;32.47;20.58;;;2.70;99.90;;;;;;5063777;28;20052;-72
2022/02/05 06:02:39;;;;;;;35.90;21.45;;;2.70;99.90;;;;;;5057577;28;20048;-72
2022/02/05 06:05:05;;;;;;;39.65;20.70;;;2.70;99.90;;;;;;5057376;28;20044;-71
2022/02/05 06:07:31;;;;;;;33.45;20.63;;;2.70;99.90;;;;;;5060568;28;20490;-72
2022/02/05 06:09:57;;;;;;;31.63;18.42;;;2.50;99.90;;;;;;5066920;28;20074;-72
2022/02/05 06:12:22;;;;;;;34.25;21.30;;;2.50;99.90;;;;;;5063530;28;20024;-72
2022/02/05 06:14:48;;;;;;;39.72;23.50;;;2.70;99.90;;;;;;5066684;28;20040;-71
2022/02/05 06:17:21;;;;;;;38.45;22.45;;;2.70;99.90;;;;;;5062849;28;20036;-71
2022/02/05 06:19:47;;;;;;;34.13;20.95;;;2.90;99.90;;;;;;5066075;28;20024;-72
2022/02/05 06:22:13;;;;;;;32.67;20.02;;;2.70;99.90;;;;;;5063396;28;20056;-72
2022/02/05 06:24:39;;;;;;;30.60;18.92;;;2.60;99.90;;;;;;5057431;28;20092;-73
2022/02/05 06:27:05;;;;;;;35.08;20.02;;;2.60;99.90;;;;;;5064131;28;20028;-72
2022/02/05 06:29:31;;;;;;;36.30;19.00;;;2.60;99.90;;;;;;5062947;28;20075;-71
2022/02/05 06:31:57;;;;;;;30.88;18.40;;;2.50;99.90;;;;;;5063389;28;20098;-73
2022/02/05 06:34:23;;;;;;;33.83;20.25;;;2.40;99.90;;;;;;5067196;28;20029;-71
2022/02/05 06:36:49;;;;;;;35.80;19.55;;;2.30;99.90;;;;;;5060168;28;20062;-71
2022/02/05 06:39:15;;;;;;;36.67;22.73;;;2.30;99.90;;;;;;5068512;28;20458;-72
2022/02/05 06:41:40;;;;;;;32.22;19.33;;;2.40;99.90;;;;;;5065200;28;20082;-72
2022/02/05 06:44:06;;;;;;;33.67;20.80;;;2.50;99.90;;;;;;5069817;28;20035;-71
2022/02/05 06:46:32;;;;;;;36.03;19.92;;;2.50;99.90;;;;;;5063503;28;20031;-72
2022/02/05 06:48:58;;;;;;;37.53;19.85;;;2.30;99.90;;;;;;5068698;28;20037;-71
2022/02/05 06:51:23;;;;;;;33.35;19.58;;;2.10;99.90;;;;;;5062814;28;20418;-72
2022/02/05 06:53:49;;;;;;;40.70;21.52;;;2.10;99.90;;;;;;5064824;28;20041;-72
2022/02/05 06:56:15;;;;;;;36.15;21.92;;;2.30;99.90;;;;;;5062960;28;20106;-71
2022/02/05 06:58:40;;;;;;;34.58;20.20;;;2.40;99.90;;;;;;5063638;28;20119;-71
2022/02/05 07:01:06;;;;;;;35.03;20.27;;;2.40;99.90;;;;;;5068719;28;20029;-71
2022/02/05 07:03:31;;;;;;;34.78;21.08;;;2.60;99.90;;;;;;5068069;28;20107;-72
2022/02/05 07:05:57;;;;;;;31.90;18.83;;;2.60;99.90;;;;;;5064701;28;20040;-71
2022/02/05 07:08:23;;;;;;;27.75;17.98;;;2.60;99.90;;;;;;5064341;28;20056;-71
2022/02/05 07:10:50;;;;;;;34.10;19.08;;;2.60;99.90;;;;;;5061550;28;20024;-71
2022/02/05 07:13:18;;;;;;;28.42;17.40;;;2.60;99.90;;;;;;5061055;28;20034;-71
2022/02/05 07:16:04;;;;;;;33.05;17.23;;;2.70;99.90;;;;;;5060775;28;20029;-72
2022/02/05 07:31:27;;;;;;;33.78;18.60;;;2.70;99.90;;;;;;5066414;28;20403;-71
2022/02/05 07:33:52;;;;;;;32.17;19.33;;;2.70;99.90;;;;;;5065382;28;20036;-72
2022/02/05 07:36:19;;;;;;;30.50;17.88;;;2.80;99.90;;;;;;5066865;28;20082;-74
2022/02/05 07:38:45;;;;;;;33.92;19.50;;;2.80;99.90;;;;;;5066845;28;20029;-73
2022/02/05 07:41:11;;;;;;;30.33;18.30;;;2.90;99.90;;;;;;5067306;28;20039;-73
2022/02/05 07:43:37;;;;;;;34.25;19.88;;;2.90;99.90;;;;;;5066897;28;20437;-71
2022/02/05 07:46:04;;;;;;;33.67;19.33;;;2.90;99.90;;;;;;5067978;28;20039;-73
2022/02/05 07:48:31;;;;;;;34.58;20.20;;;3.00;99.90;;;;;;5066618;28;20036;-73
2022/02/05 07:50:57;;;;;;;34.50;19.13;;;3.20;99.90;;;;;;5059425;28;20036;-73
2022/02/05 07:53:22;;;;;;;32.17;18.17;;;3.20;99.90;;;;;;5067612;28;20410;-73
2022/02/05 07:55:48;;;;;;;32.17;19.38;;;3.20;99.90;;;;;;5063425;28;20029;-73
2022/02/05 07:58:14;;;;;;;30.80;17.00;;;3.40;99.90;;;;;;5062637;28;20541;-73
2022/02/05 08:00:40;;;;;;;32.13;18.48;;;3.30;99.90;;;;;;5065482;28;20051;-73
2022/02/05 08:03:06;;;;;;;24.17;17.25;;;3.40;99.90;;;;;;5064949;28;20020;-73
2022/02/05 08:05:32;;;;;;;28.48;16.48;;;3.50;99.90;;;;;;5067573;28;20028;-73
2022/02/05 08:07:58;;;;;;;28.05;17.42;;;3.50;99.90;;;;;;5046868;28;20110;-74
2022/02/05 08:10:30;;;;;;;26.73;16.40;;;3.60;99.90;;;;;;5061609;28;20032;-73
2022/02/05 08:12:56;;;;;;;31.25;19.10;;;3.60;99.90;;;;;;5064674;28;20029;-77
2022/02/05 08:15:25;;;;;;;28.45;17.58;;;3.60;99.90;;;;;;5036152;28;20092;-74
2022/02/05 08:17:51;;;;;;;29.58;17.70;;;3.70;99.90;;;;;;5060667;28;20053;-76
2022/02/05 08:20:16;;;;;;;29.98;19.52;;;3.70;99.90;;;;;;5047497;28;20032;-75
2022/02/05 08:22:42;;;;;;;28.52;16.95;;;3.80;99.90;;;;;;5043886;28;20032;-75
2022/02/05 08:25:08;;;;;;;27.77;17.52;;;3.90;99.90;;;;;;5042523;28;20110;-75
2022/02/05 08:27:35;;;;;;;26.70;15.82;;;4.00;99.90;;;;;;5043160;28;20104;-75
2022/02/05 08:30:06;;;;;;;27.88;17.38;;;4.00;99.90;;;;;;5037568;28;20059;-75
2022/02/05 08:32:32;;;;;;;30.00;18.83;;;4.10;99.90;;;;;;5043160;28;20044;-74
2022/02/05 08:35:00;;;;;;;29.02;17.20;;;4.00;99.90;;;;;;5040984;28;20163;-75
2022/02/05 08:37:29;;;;;;;28.00;17.55;;;4.10;99.90;;;;;;5040595;28;20133;-74
2022/02/05 08:39:55;;;;;;;29.02;17.80;;;4.10;99.90;;;;;;5038526;28;20503;-74
2022/02/05 08:42:21;;;;;;;28.58;17.88;;;4.20;99.90;;;;;;5026205;28;20036;-74
2022/02/05 08:44:46;;;;;;;26.85;16.83;;;4.20;99.90;;;;;;5040101;28;20103;-74
2022/02/05 08:47:12;;;;;;;26.75;17.33;;;4.00;99.90;;;;;;5041343;28;20032;-75
2022/02/05 08:49:38;;;;;;;26.05;16.40;;;3.90;99.90;;;;;;5035483;28;20033;-74
2022/02/05 08:52:07;;;;;;;23.90;15.25;;;4.00;99.90;;;;;;5043327;28;20036;-75
2022/02/05 08:54:33;;;;;;;24.08;15.25;;;4.00;99.90;;;;;;5038131;28;20553;-75
2022/02/05 08:56:58;;;;;;;25.70;15.95;;;3.80;99.90;;;;;;5036576;28;20040;-74
2022/02/05 08:59:27;;;;;;;30.60;16.27;;;3.80;99.90;;;;;;5035266;28;20522;-76
2022/02/05 09:02:11;;;;;;;27.08;16.30;;;3.70;99.90;;;;;;5035718;28;20037;-75
2022/02/05 09:07:23;;;;;;;29.35;16.35;;;4.00;99.90;;;;;;5025525;28;20041;-75
2022/02/05 09:12:56;;;;;;;29.23;16.25;;;4.20;99.90;;;;;;5036885;28;20503;-74
2022/02/05 09:15:18;;;;;;;28.85;14.30;;;4.20;99.90;;;;;;5037109;28;20029;-73
2022/02/05 09:17:44;;;;;;;24.60;14.40;;;4.30;99.90;;;;;;5040146;28;20033;-75
2022/02/05 09:20:10;;;;;;;26.70;16.42;;;4.50;99.90;;;;;;5038608;28;20040;-74
2022/02/05 09:22:35;;;;;;;23.83;13.43;;;4.20;99.90;;;;;;5037654;28;20456;-75
2022/02/05 09:25:01;;;;;;;27.27;16.10;;;4.00;99.90;;;;;;5034560;28;20048;-75
2022/02/05 09:27:35;;;;;;;27.30;14.18;;;4.10;99.90;;;;;;5023448;28;20056;-73
2022/02/05 09:30:04;;;;;;;20.63;13.02;;;4.00;99.90;;;;;;5035667;28;20167;-75
2022/02/05 09:32:30;;;;;;;19.50;12.02;;;4.10;99.90;;;;;;5031194;28;20021;-74
2022/02/05 09:34:56;;;;;;;22.52;14.10;;;4.30;99.90;;;;;;5023635;28;20029;-74
2022/02/05 09:37:22;;;;;;;22.73;12.95;;;4.40;99.60;;;;;;5044041;28;20056;-73
2022/02/05 09:39:47;;;;;;;24.42;13.80;;;4.40;99.90;;;;;;5041049;28;20144;-74
2022/02/05 09:42:15;;;;;;;24.15;13.65;;;4.60;99.90;;;;;;5047089;28;20111;-73
2022/02/05 09:44:41;;;;;;;22.67;13.45;;;4.30;99.90;;;;;;5047547;28;20056;-73
2022/02/05 09:47:07;;;;;;;27.00;13.55;;;4.20;99.90;;;;;;5045281;28;20676;-73
2022/02/05 09:49:33;;;;;;;23.25;14.02;;;4.20;99.90;;;;;;5039609;28;20036;-73
2022/02/05 09:52:19;;;;;;;33.33;17.13;;;4.20;99.90;;;;;;5037394;28;20041;-74
2022/02/05 09:54:45;;;;;;;26.15;14.48;;;4.10;99.90;;;;;;5025176;28;20081;-73
2022/02/05 09:57:11;;;;;;;23.65;12.73;;;4.00;99.90;;;;;;5025570;28;20049;-73
2022/02/05 09:59:39;;;;;;;19.52;11.40;;;4.00;99.90;;;;;;5023582;28;20472;-73
2022/02/05 10:02:29;;;;;;;21.55;10.80;;;4.20;99.90;;;;;;5022227;28;20033;-73
2022/02/05 10:05:07;;;;;;;18.90;13.45;;;4.30;99.80;;;;;;5019232;28;20037;-75
2022/02/05 10:07:36;;;;;;;21.23;12.00;;;4.50;99.40;;;;;;5020979;28;20301;-76
2022/02/05 10:10:05;;;;;;;23.10;12.98;;;4.50;99.80;;;;;;5020198;28;20119;-74
2022/02/05 10:12:31;;;;;;;23.02;13.93;;;4.50;99.90;;;;;;5021684;28;20033;-75
2022/02/05 10:14:58;;;;;;;19.73;14.30;;;4.60;99.90;;;;;;5018062;28;20104;-72
2022/02/05 10:17:44;;;;;;;23.45;12.98;;;4.70;99.90;;;;;;5017257;28;20025;-73
2022/02/05 10:20:12;;;;;;;19.00;11.63;;;4.70;99.90;;;;;;5026604;28;20025;-74
2022/02/05 10:22:43;;;;;;;21.52;12.40;;;4.60;99.70;;;;;;5023923;28;20071;-74
2022/02/05 10:25:19;;;;;;;23.63;12.48;;;4.60;99.30;;;;;;5025108;28;20038;-74
2022/02/05 10:27:47;;;;;;;20.50;12.43;;;4.70;99.40;;;;;;5022760;28;20037;-76
2022/02/05 10:30:18;;;;;;;20.10;12.27;;;4.80;99.30;;;;;;5025097;28;20587;-73
2022/02/05 10:32:48;;;;;;;22.50;11.57;;;5.10;99.30;;;;;;5031072;28;20483;-76
2022/02/05 10:37:53;;;;;;;17.70;10.15;;;5.10;98.60;;;;;;5028885;28;20138;-76
2022/02/05 10:40:28;;;;;;;16.60;9.80;;;5.00;98.40;;;;;;5026656;28;20086;-74
2022/02/05 10:43:07;;;;;;;16.98;11.05;;;4.90;98.30;;;;;;5027641;28;20044;-75
2022/02/05 10:45:42;;;;;;;17.42;10.38;;;5.00;98.50;;;;;;5028717;28;20022;-72
2022/02/05 10:48:09;;;;;;;15.25;10.23;;;5.00;98.20;;;;;;5028167;28;20060;-73
2022/02/05 10:50:35;;;;;;;21.63;10.82;;;5.10;98.10;;;;;;5024059;28;20026;-71
2022/02/05 10:53:12;;;;;;;16.27;11.73;;;5.10;98.40;;;;;;5021225;28;20037;-70
2022/02/05 10:55:51;;;;;;;17.42;11.75;;;5.20;98.60;;;;;;5023460;28;20032;-73
2022/02/05 10:58:46;;;;;;;20.63;10.32;;;5.40;98.30;;;;;;5017873;28;20129;-73
2022/02/05 11:07:17;;;;;;;17.60;11.75;;;5.50;98.00;;;;;;5022283;28;20044;-73
2022/02/05 11:09:46;;;;;;;19.35;10.85;;;5.60;97.90;;;;;;5012215;28;20115;-72
2022/02/05 11:15:00;;;;;;;16.08;10.00;;;5.70;97.30;;;;;;5018801;28;20038;-72
2022/02/05 11:18:08;;;;;;;16.95;10.35;;;5.70;97.40;;;;;;5009907;28;20056;-77
2022/02/05 11:20:34;;;;;;;16.63;10.52;;;6.40;99.40;;;;;;5021223;28;20091;-75
2022/02/05 11:23:08;;;;;;;17.58;11.90;;;6.40;96.80;;;;;;5025207;28;20030;-74
2022/02/05 11:25:37;;;;;;;20.00;10.85;;;6.50;96.50;;;;;;5018939;28;20061;-73
2022/02/05 11:28:03;;;;;;;17.05;11.43;;;6.30;96.00;;;;;;5023383;28;20580;-73
2022/02/05 11:30:47;;;;;;;16.77;10.25;;;6.30;96.30;;;;;;5021878;28;20033;-73
2022/02/05 11:33:29;;;;;;;19.00;11.20;;;6.40;95.90;;;;;;5025259;28;20079;-73
2022/02/05 11:38:36;;;;;;;20.63;12.05;;;6.80;95.90;;;;;;5026639;28;20048;-72
2022/02/05 11:41:04;;;;;;;17.25;10.20;;;6.90;95.90;;;;;;5024596;28;20079;-73
2022/02/05 11:43:34;;;;;;;20.98;10.75;;;7.00;95.60;;;;;;5021212;28;20036;-72
2022/02/05 11:46:12;;;;;;;21.25;10.80;;;7.10;95.50;;;;;;5028117;28;20052;-72
2022/02/05 11:48:40;;;;;;;22.35;11.88;;;7.30;95.70;;;;;;5021899;28;20044;-73
2022/02/05 11:51:10;;;;;;;16.52;10.38;;;7.30;95.20;;;;;;5021125;28;20150;-73
2022/02/05 11:53:58;;;;;;;19.23;10.90;;;7.40;95.00;;;;;;5018751;28;20033;-73
2022/02/05 11:56:52;;;;;;;21.42;11.27;;;7.60;94.90;;;;;;5021690;28;20095;-73
2022/02/05 11:59:55;;;;;;;15.80;10.45;;;7.70;94.40;;;;;;5026022;28;20032;-73
2022/02/05 12:02:22;;;;;;;19.40;11.20;;;7.90;94.30;;;;;;5024433;28;20033;-73
2022/02/05 12:05:21;;;;;;;16.58;9.57;;;7.90;94.20;;;;;;5017066;28;20419;-72
2022/02/05 12:08:05;;;;;;;20.17;11.43;;;8.00;93.70;;;;;;5017529;28;20057;-72
2022/02/05 12:10:39;;;;;;;20.60;10.77;;;8.10;93.80;;;;;;5022886;28;20167;-72
2022/02/05 12:13:24;;;;;;;18.80;11.57;;;8.20;93.70;;;;;;5024870;28;20024;-72
2022/02/05 12:15:56;;;;;;;16.95;10.23;;;8.40;93.50;;;;;;5022184;28;20646;-73
2022/02/05 12:18:27;;;;;;;23.38;11.50;;;8.50;93.30;;;;;;5012044;28;20038;-72
2022/02/05 12:20:53;;;;;;;24.08;13.27;;;8.30;93.20;;;;;;5020146;28;20110;-72
2022/02/05 12:23:42;;;;;;;19.27;11.15;;;8.30;93.30;;;;;;5008154;28;21032;-72
2022/02/05 12:26:08;;;;;;;16.95;10.77;;;8.10;93.20;;;;;;5018264;28;20380;-73
2022/02/05 12:28:36;;;;;;;17.73;10.90;;;8.40;93.20;;;;;;5008040;28;20037;-72
2022/02/05 12:31:04;;;;;;;13.90;10.05;;;8.60;93.30;;;;;;5026359;28;20055;-72
2022/02/05 12:33:49;;;;;;;17.92;11.02;;;8.80;93.10;;;;;;5026069;28;20040;-72
2022/02/05 12:36:26;;;;;;;;;;;8.80;92.60;;;;;;5027682;28;20348;-73
2022/02/05 12:38:54;;;;;;;15.65;9.90;;;8.80;92.80;;;;;;5021694;28;19913;-72
2022/02/05 12:41:22;;;;;;;17.30;10.60;;;8.60;92.60;;;;;;5027120;28;20033;-73
2022/02/05 12:43:58;;;;;;;17.00;10.20;;;8.70;92.50;;;;;;5023031;28;20048;-72
2022/02/05 12:46:40;;;;;;;18.80;11.68;;;8.80;92.50;;;;;;5027474;28;20094;-73
2022/02/05 12:49:33;;;;;;;15.88;10.38;;;8.80;92.20;;;;;;5020540;28;20091;-72
2022/02/05 12:52:00;;;;;;;16.17;9.82;;;9.10;92.40;;;;;;5019722;28;20033;-72
2022/02/05 12:54:30;;;;;;;16.52;10.27;;;9.10;92.10;;;;;;5022293;28;20436;-72
2022/02/05 12:56:58;;;;;;;15.40;10.02;;;9.10;92.00;;;;;;5031253;28;20099;-72
2022/02/05 12:59:35;;;;;;;22.67;10.20;;;9.10;92.20;;;;;;5026887;28;20030;-72
2022/02/05 13:02:07;;;;;;;13.18;9.98;;;9.00;91.80;;;;;;5026098;28;20049;-74
2022/02/05 13:04:48;;;;;;;18.15;11.13;;;9.10;91.90;;;;;;5024925;28;20088;-73
2022/02/05 13:07:21;;;;;;;13.18;9.35;;;9.00;91.90;;;;;;5026380;28;20057;-72
2022/02/05 13:09:58;;;;;;;14.98;10.70;;;8.90;91.70;;;;;;5021975;28;20204;-72
2022/02/05 13:12:29;;;;;;;18.52;9.98;;;9.00;92.30;;;;;;5019477;28;20917;-72
2022/02/05 13:15:06;;;;;;;24.73;22.23;;;9.10;92.00;;;;;;5014152;28;20112;-72
2022/02/05 13:20:23;;;;;;;16.02;11.68;;;9.50;91.70;;;;;;5005363;28;20488;-73
2022/02/05 13:34:19;;;;;;;19.55;11.30;;;9.80;90.80;;;;;;5009719;28;20034;-73
2022/02/05 13:36:17;;;;;;;16.20;10.93;;;9.80;91.00;;;;;;4994193;28;20675;-72
2022/02/05 13:41:57;;;;;;;17.77;13.27;;;9.70;90.70;;;;;;4993217;28;20041;-72
2022/02/05 13:44:26;;;;;;;15.98;10.73;;;9.60;90.90;;;;;;5000737;28;20105;-73
2022/02/05 13:47:07;;;;;;;19.00;9.52;;;9.60;90.90;;;;;;5009836;28;20042;-72
2022/02/05 13:49:34;;;;;;;19.10;11.55;;;9.60;91.10;;;;;;5007292;28;20025;-72
2022/02/05 13:52:13;;;;;;;13.45;8.80;;;9.60;90.90;;;;;;5015537;28;20045;-73
2022/02/05 13:54:41;;;;;;;15.10;10.27;;;9.60;90.80;;;;;;5017285;28;20026;-73
2022/02/05 13:57:10;;;;;;;16.95;10.18;;;9.60;90.70;;;;;;5007741;28;20443;-73
2022/02/05 13:59:36;;;;;;;20.20;10.25;;;9.60;90.70;;;;;;5003485;28;20037;-72
2022/02/05 14:02:37;;;;;;;84.45;47.72;;;9.60;90.80;;;;;;5007678;28;20045;-73
2022/02/05 14:05:11;;;;;;;18.60;11.80;;;9.90;90.90;;;;;;5002292;28;20393;-72
2022/02/05 14:07:47;;;;;;;15.02;8.82;;;10.00;90.30;;;;;;5009527;28;20029;-73
2022/02/05 14:10:15;;;;;;;14.95;9.23;;;10.00;90.20;;;;;;5007481;28;20037;-74
2022/02/05 14:12:52;;;;;;;24.17;17.45;;;10.00;90.20;;;;;;5010565;28;20888;-72
2022/02/05 14:15:20;;;;;;;15.93;10.10;;;10.10;90.00;;;;;;5009641;28;20034;-73
2022/02/05 14:17:46;;;;;;;11.57;8.63;;;10.10;90.10;;;;;;5005421;28;20504;-73
2022/02/05 14:20:14;;;;;;;26.05;9.63;;;10.10;90.00;;;;;;5008344;28;20034;-73
2022/02/05 14:22:45;;;;;;;14.85;9.48;;;10.20;89.80;;;;;;5004856;28;20033;-73
2022/02/05 14:25:20;;;;;;;12.70;8.23;;;10.50;88.70;;;;;;5005275;28;20054;-73
2022/02/05 14:28:10;;;;;;;12.55;8.32;;;10.50;88.60;;;;;;5008230;28;20205;-74
2022/02/05 14:30:38;;;;;;;15.60;7.90;;;10.30;89.10;;;;;;5008931;28;20480;-73
2022/02/05 14:33:07;;;;;;;12.35;7.68;;;10.30;88.90;;;;;;5009709;28;20030;-74
2022/02/05 14:36:00;;;;;;;12.48;8.75;;;10.20;89.00;;;;;;5009458;28;20127;-73
2022/02/05 14:41:08;;;;;;;15.68;8.60;;;10.30;89.10;;;;;;5004756;28;20045;-73
2022/02/05 14:43:34;;;;;;;16.58;9.38;;;10.20;89.50;;;;;;5008041;28;20104;-73
2022/02/05 14:45:59;;;;;;;14.23;9.35;;;10.40;89.00;;;;;;5009528;28;20144;-73
2022/02/05 14:48:25;;;;;;;17.88;10.63;;;10.50;88.80;;;;;;5005772;28;20026;-73
2022/02/05 14:50:53;;;;;;;13.43;9.00;;;10.50;88.90;;;;;;4992310;28;20022;-74
2022/02/05 14:53:18;;;;;;;13.85;7.90;;;10.40;88.60;;;;;;4996977;28;20120;-74
2022/02/05 14:55:44;;;;;;;18.08;10.30;;;10.50;88.90;;;;;;5002265;28;20105;-73
2022/02/05 14:58:10;;;;;;;13.90;8.45;;;10.40;88.70;;;;;;5004648;28;20073;-73
2022/02/05 15:00:35;;;;;;;11.57;8.32;;;10.30;88.90;;;;;;5002181;28;20026;-73
2022/02/05 15:03:02;;;;;;;26.20;20.20;;;10.30;88.70;;;;;;4991102;28;20076;-74
2022/02/05 15:05:28;;;;;;;18.77;13.55;;;10.30;88.60;;;;;;5006228;28;20069;-73
2022/02/05 15:07:53;;;;;;;13.40;10.23;;;10.30;88.50;;;;;;5003862;28;20069;-73
2022/02/05 15:10:19;;;;;;;12.10;7.82;;;10.20;88.80;;;;;;5006294;28;20117;-74
2022/02/05 15:12:45;;;;;;;13.50;8.15;;;10.10;88.90;;;;;;5004358;28;20089;-73
2022/02/05 15:15:19;;;;;;;12.95;7.88;;;10.00;89.20;;;;;;5005778;28;20026;-73
2022/02/05 15:17:45;;;;;;;14.13;7.13;;;10.00;89.10;;;;;;5007791;28;20057;-73
2022/02/05 15:20:16;;;;;;;9.50;5.35;;;10.00;89.30;;;;;;5002706;28;20022;-73
2022/02/05 15:22:46;;;;;;;12.88;6.05;;;9.80;89.30;;;;;;5003443;28;20657;-73
2022/02/05 15:25:12;;;;;;;10.43;6.05;;;9.70;89.80;;;;;;5005541;28;20996;-73
2022/02/05 15:27:39;;;;;;;9.20;6.18;;;9.60;89.80;;;;;;5005826;28;20025;-73
2022/02/05 15:30:06;;;;;;;12.30;5.65;;;9.70;89.50;;;;;;5006371;28;20121;-73
2022/02/05 15:32:32;;;;;;;10.27;6.63;;;9.70;89.40;;;;;;5007139;28;20049;-74
2022/02/05 15:34:58;;;;;;;11.23;6.40;;;9.70;89.60;;;;;;5004388;28;20038;-74
2022/02/05 15:37:25;;;;;;;11.40;5.75;;;9.60;89.80;;;;;;5006473;28;20080;-73
2022/02/05 15:45:04;;;;;;;11.15;4.20;;;9.30;89.80;;;;;;5002732;28;20045;-74